Observation data for Northwest Lubbock on 05/25/2019      Previous  Date       Current Mesonet Observations  Soil Data  Daily Summary Page  Observations in Plain Language
KLBW 250500Z 09006KT 18/18 A2999 RMK A01 T01830175  RH  100%=      5-min Rain = 0
KLBW 250505Z 09006KT 18/17 A2999 RMK A01 T01830174  RH  100%=      5-min Rain = 0
KLBW 250510Z 09005KT 18/17 A2999 RMK A01 T01820174  RH  100%=      5-min Rain = 0
KLBW 250515Z 09006KT 18/17 A2999 RMK A01 T01820174  RH  100%=      5-min Rain = 0
KLBW 250520Z 09006KT 18/17 A2999 RMK A01 T01810173  RH  100%=      5-min Rain = 0
KLBW 250525Z 10007KT 18/17 A2999 RMK A01 T01820174  RH  100%=      5-min Rain = 0
KLBW 250530Z 10006KT 18/17 A2999 RMK A01 T01820174  RH  100%=      5-min Rain = 0
KLBW 250535Z 09006KT 18/17 A2999 RMK A01 T01820174  RH  100%=      5-min Rain = 0
KLBW 250540Z 10007KT 18/17 A2998 RMK A01 T01820174  RH  100%=      5-min Rain = 0
KLBW 250545Z 10006KT 18/17 A2998 RMK A01 T01820174  RH  100%=      5-min Rain = 0
KLBW 250550Z 10005KT 18/17 A2998 RMK A01 T01820174  RH  100%=      5-min Rain = 0
KLBW 250555Z 10006KT 18/17 A2998 RMK A01 T01810173  RH  100%=      5-min Rain = 0
KLBW 250600Z 10006KT 18/17 A2998 RMK A01 T01800172  RH  100%=      5-min Rain = 0
KLBW 250605Z 10006KT 18/17 A2998 RMK A01 T01800172  RH  100%=      5-min Rain = 0
KLBW 250610Z 11005KT 18/17 A2998 RMK A01 T01790171  RH  100%=      5-min Rain = 0
KLBW 250615Z 10006KT 18/17 A2998 RMK A01 T01780171  RH  100%=      5-min Rain = 0
KLBW 250620Z 10004KT 18/17 A2998 RMK A01 T01780170  RH  100%=      5-min Rain = 0
KLBW 250625Z 09006KT 18/17 A2998 RMK A01 T01780170  RH  100%=      5-min Rain = 0
KLBW 250630Z 09004KT 18/17 A2998 RMK A01 T01760169  RH  100%=      5-min Rain = 0
KLBW 250635Z 10005KT 18/17 A2997 RMK A01 T01750167  RH  100%=      5-min Rain = 0
KLBW 250640Z 10005KT 18/17 A2997 RMK A01 T01750167  RH  100%=      5-min Rain = 0
KLBW 250645Z 10006KT 18/17 A2997 RMK A01 T01750167  RH  100%=      5-min Rain = 0
KLBW 250650Z 11006KT 18/17 A2997 RMK A01 T01750168  RH  100%=      5-min Rain = 0
KLBW 250655Z 10005KT 18/17 A2997 RMK A01 T01760168  RH  100%=      5-min Rain = 0
KLBW 250700Z 10005KT 18/17 A2997 RMK A01 T01770169  RH  100%=      5-min Rain = 0
KLBW 250705Z 11005G10KT 18/17 A2997 RMK A01 T01780170  RH  100%=      5-min Rain = 0
KLBW 250710Z 11006KT 18/17 A2997 RMK A01 T01790171  RH  100%=      5-min Rain = 0
KLBW 250715Z 10006KT 18/17 A2997 RMK A01 T01800172  RH  100%=      5-min Rain = 0
KLBW 250720Z 11006KT 18/17 A2997 RMK A01 T01800173  RH  100%=      5-min Rain = 0
KLBW 250725Z 10006KT 18/17 A2997 RMK A01 T01810173  RH  100%=      5-min Rain = 0
KLBW 250730Z 10006KT 18/17 A2997 RMK A01 T01810173  RH  100%=      5-min Rain = 0
KLBW 250735Z 10006KT 18/17 A2997 RMK A01 T01810173  RH  100%=      5-min Rain = 0
KLBW 250740Z 11007G12KT 18/17 A2996 RMK A01 T01820174  RH  100%=      5-min Rain = 0
KLBW 250745Z 11007KT 18/17 A2996 RMK A01 T01820174  RH  100%=      5-min Rain = 0
KLBW 250750Z 11007KT 18/17 A2996 RMK A01 T01820174  RH  100%=      5-min Rain = 0
KLBW 250755Z 11008G13KT 18/17 A2996 RMK A01 T01820174  RH  100%=      5-min Rain = 0
KLBW 250800Z 11008KT 18/17 A2996 RMK A01 T01820174  RH  100%=      5-min Rain = 0
KLBW 250805Z 11007KT 18/17 A2996 RMK A01 T01820174  RH  100%=      5-min Rain = 0
KLBW 250810Z 11007KT 18/17 A2996 RMK A01 T01820174  RH  100%=      5-min Rain = 0
KLBW 250815Z 11007KT 18/17 A2996 RMK A01 T01820174  RH  100%=      5-min Rain = 0
KLBW 250820Z 11008KT 18/17 A2996 RMK A01 T01820174  RH  100%=      5-min Rain = 0
KLBW 250825Z 12007KT 18/18 A2996 RMK A01 T01830175  RH  100%=      5-min Rain = 0
KLBW 250830Z 11007KT 18/18 A2996 RMK A01 T01830175  RH  100%=      5-min Rain = 0
KLBW 250835Z 11008KT 18/18 A2996 RMK A01 T01830175  RH  100%=      5-min Rain = 0
KLBW 250840Z 11006KT 18/18 A2996 RMK A01 T01840176  RH  100%=      5-min Rain = 0
KLBW 250845Z 11007KT 18/18 A2995 RMK A01 T01840176  RH  100%=      5-min Rain = 0
KLBW 250850Z 12005KT 18/18 A2995 RMK A01 T01840176  RH  100%=      5-min Rain = 0
KLBW 250855Z 12006KT 18/18 A2996 RMK A01 T01840176  RH  100%=      5-min Rain = 0
KLBW 250900Z 12007KT 19/18 A2995 RMK A01 T01850177  RH  100%=      5-min Rain = 0
KLBW 250905Z 12007G13KT 19/18 A2995 RMK A01 T01850177  RH  100%=      5-min Rain = 0
KLBW 250910Z 13009KT 19/18 A2995 RMK A01 T01850177  RH  100%=      5-min Rain = 0
KLBW 250915Z 12008KT 19/18 A2995 RMK A01 T01860178  RH  100%=      5-min Rain = 0
KLBW 250920Z 13009G14KT 19/18 A2995 RMK A01 T01860178  RH  100%=      5-min Rain = 0
KLBW 250925Z 12008KT 19/18 A2995 RMK A01 T01870178  RH  100%=      5-min Rain = 0
KLBW 250930Z 12009KT 19/18 A2995 RMK A01 T01870178  RH  100%=      5-min Rain = 0
KLBW 250935Z 13008KT 19/18 A2995 RMK A01 T01870178  RH  100%=      5-min Rain = 0
KLBW 250940Z 13009KT 19/18 A2995 RMK A01 T01870179  RH  100%=      5-min Rain = 0
KLBW 250945Z 13008KT 19/18 A2996 RMK A01 T01870179  RH  100%=      5-min Rain = 0
KLBW 250950Z 12008KT 19/18 A2996 RMK A01 T01870179  RH  100%=      5-min Rain = 0
KLBW 250955Z 12009KT 19/18 A2996 RMK A01 T01870179  RH  100%=      5-min Rain = 0
KLBW 251000Z 12008KT 19/18 A2996 RMK A01 T01870179  RH  100%=      5-min Rain = 0
KLBW 251005Z 13008KT 19/18 A2996 RMK A01 T01870179  RH  100%=      5-min Rain = 0
KLBW 251010Z 12008KT 19/18 A2996 RMK A01 T01880179  RH  100%=      5-min Rain = 0
KLBW 251015Z 12008KT 19/18 A2996 RMK A01 T01880179  RH  100%=      5-min Rain = 0
KLBW 251020Z 13008G13KT 19/18 A2996 RMK A01 T01880180  RH  100%=      5-min Rain = 0
KLBW 251025Z 12008G14KT 19/18 A2996 RMK A01 T01880180  RH  100%=      5-min Rain = 0
KLBW 251030Z 12009KT 19/18 A2996 RMK A01 T01880180  RH  100%=      5-min Rain = 0
KLBW 251035Z 12009KT 19/18 A2996 RMK A01 T01880180  RH  100%=      5-min Rain = 0
KLBW 251040Z 13009G14KT 19/18 A2996 RMK A01 T01880180  RH  100%=      5-min Rain = 0
KLBW 251045Z 13009KT 19/18 A2996 RMK A01 T01890180  RH  100%=      5-min Rain = 0
KLBW 251050Z 13008KT 19/18 A2997 RMK A01 T01890180  RH  100%=      5-min Rain = 0
KLBW 251055Z 13009G14KT 19/18 A2997 RMK A01 T01890181  RH  100%=      5-min Rain = 0
KLBW 251100Z 13009KT 19/18 A2997 RMK A01 T01890181  RH  100%=      5-min Rain = 0
KLBW 251105Z 13008KT 19/18 A2997 RMK A01 T01890181  RH  100%=      5-min Rain = 0
KLBW 251110Z 13008KT 19/18 A2997 RMK A01 T01900181  RH  100%=      5-min Rain = 0
KLBW 251115Z 13008KT 19/18 A2997 RMK A01 T01900181  RH  100%=      5-min Rain = 0
KLBW 251120Z 13009KT 19/18 A2997 RMK A01 T01900182  RH  100%=      5-min Rain = 0
KLBW 251125Z 13009KT 19/18 A2997 RMK A01 T01900182  RH  100%=      5-min Rain = 0
KLBW 251130Z 13009G14KT 19/18 A2998 RMK A01 T01910182  RH  100%=      5-min Rain = 0
KLBW 251135Z 14009KT 19/18 A2998 RMK A01 T01910183  RH  100%=      5-min Rain = 0
KLBW 251140Z 13007KT 19/18 A2998 RMK A01 T01910183  RH  100%=      5-min Rain = 0
KLBW 251145Z 13009KT 19/18 A2998 RMK A01 T01910183  RH  100%=      5-min Rain = 0
KLBW 251150Z 14007G12KT 19/18 A2998 RMK A01 T01910183  RH  100%=      5-min Rain = 0
KLBW 251155Z 13007KT 19/18 A2998 RMK A01 T01910183  RH  100%=      5-min Rain = 0
KLBW 251200Z 13007G12KT 19/18 A2999 RMK A01 T01920183  RH  100%=      5-min Rain = 0
KLBW 251205Z 12008KT 19/18 A2999 RMK A01 T01920183  RH  100%=      5-min Rain = 0
KLBW 251210Z 12008KT 19/18 A2999 RMK A01 T01920184  RH  100%=      5-min Rain = 0
KLBW 251215Z 13007G12KT 19/18 A2999 RMK A01 T01920184  RH  100%=      5-min Rain = 0
KLBW 251220Z 14008G13KT 19/18 A2999 RMK A01 T01930184  RH  100%=      5-min Rain = 0
KLBW 251225Z 14010KT 19/19 A30 RMK A01 T01940185  RH  100%=      5-min Rain = 0
KLBW 251230Z 13009KT 19/19 A30 RMK A01 T01940186  RH  100%=      5-min Rain = 0
KLBW 251235Z 14009KT 20/19 A30 RMK A01 T01950186  RH  100%=      5-min Rain = 0
KLBW 251240Z 14009G14KT 20/19 A30 RMK A01 T01950187  RH  100%=      5-min Rain = 0
KLBW 251245Z 13009G14KT 20/19 A30 RMK A01 T01960188  RH  100%=      5-min Rain = 0
KLBW 251250Z 14008KT 20/19 A30 RMK A01 T01970188  RH  100%=      5-min Rain = 0
KLBW 251255Z 14009KT 20/19 A30 RMK A01 T01970188  RH  100%=      5-min Rain = 0
KLBW 251300Z 13009G14KT 20/19 A3001 RMK A01 T01980189  RH  100%=      5-min Rain = 0
KLBW 251305Z 14009G15KT 20/19 A3001 RMK A01 T01990190  RH  100%=      5-min Rain = 0
KLBW 251310Z 14010G15KT 20/19 A3001 RMK A01 T01990190  RH  100%=      5-min Rain = 0
KLBW 251315Z 14010KT 20/19 A3001 RMK A01 T02000191  RH  100%=      5-min Rain = 0
KLBW 251320Z 14009G14KT 20/19 A3001 RMK A01 T02000191  RH  100%=      5-min Rain = 0
KLBW 251325Z 14009G15KT 20/19 A3001 RMK A01 T02000191  RH  100%=      5-min Rain = 0
KLBW 251330Z 14009G15KT 20/19 A3001 RMK A01 T02010192  RH  100%=      5-min Rain = 0
KLBW 251335Z 14008KT 20/19 A3001 RMK A01 T02010192  RH  100%=      5-min Rain = 0
KLBW 251340Z 14010G15KT 20/19 A3001 RMK A01 T02000192  RH  100%=      5-min Rain = 0
KLBW 251345Z 14008G14KT 20/19 A3001 RMK A01 T02000191  RH  100%=      5-min Rain = 0
KLBW 251350Z 14010KT 20/19 A3002 RMK A01 T01990191  RH  100%=      5-min Rain = 0
KLBW 251355Z 14010G15KT 20/19 A3002 RMK A01 T01990190  RH  100%=      5-min Rain = 0
KLBW 251400Z 14009KT 20/19 A3002 RMK A01 T01990190  RH  100%=      5-min Rain = 0
KLBW 251405Z 14009G14KT 20/19 A3002 RMK A01 T01990190  RH  100%=      5-min Rain = 0
KLBW 251410Z 14008G13KT 20/19 A3002 RMK A01 T01980190  RH  100%=      5-min Rain = 0
KLBW 251415Z 14008KT 20/19 A3002 RMK A01 T01980190  RH  100%=      5-min Rain = 0
KLBW 251420Z 14010KT 20/19 A3002 RMK A01 T01980190  RH  100%=      5-min Rain = 0
KLBW 251425Z 14010G17KT 20/19 A3002 RMK A01 T01980190  RH  100%=      5-min Rain = 0
KLBW 251430Z 14008KT 20/19 A3002 RMK A01 T01990190  RH  100%=      5-min Rain = 0
KLBW 251435Z 15009G14KT 20/19 A3003 RMK A01 T01990190  RH  100%=      5-min Rain = 0
KLBW 251440Z 15009KT 20/19 A3003 RMK A01 T01990190  RH  100%=      5-min Rain = 0
KLBW 251445Z 14009KT 20/19 A3003 RMK A01 T01990190  RH  100%=      5-min Rain = 0
KLBW 251450Z 15009G14KT 20/19 A3003 RMK A01 T01990190  RH  100%=      5-min Rain = 0
KLBW 251455Z 14009KT 20/19 A3002 RMK A01 T01990190  RH  100%=      5-min Rain = 0
KLBW 251500Z 15009KT 20/19 A3002 RMK A01 T02000191  RH  100%=      5-min Rain = 0
KLBW 251505Z 14007G12KT 20/19 A3002 RMK A01 T02010192  RH  100%=      5-min Rain = 0
KLBW 251510Z 14009G14KT 20/19 A3002 RMK A01 T02010192  RH  100%=      5-min Rain = 0
KLBW 251515Z 14010KT 20/19 A3002 RMK A01 T02000192  RH  100%=      5-min Rain = 0
KLBW 251520Z 14009G15KT 20/19 A3002 RMK A01 T02010192  RH  100%=      5-min Rain = 0
KLBW 251525Z 15010KT 20/19 A3001 RMK A01 T02020193  RH  100%=      5-min Rain = 0
KLBW 251530Z 14009KT 20/19 A3001 RMK A01 T02020193  RH  100%=      5-min Rain = 0
KLBW 251535Z 14008G14KT 20/19 A3001 RMK A01 T02030194  RH  100%=      5-min Rain = 0
KLBW 251540Z 14008G14KT 20/20 A3001 RMK A01 T02040195  RH  100%=      5-min Rain = 0
KLBW 251545Z 15009G14KT 20/20 A3002 RMK A01 T02040195  RH  100%=      5-min Rain = 0
KLBW 251550Z 15008G14KT 20/20 A3002 RMK A01 T02040195  RH  100%=      5-min Rain = 0
KLBW 251555Z 15009KT 20/20 A3002 RMK A01 T02040195  RH  100%=      5-min Rain = 0
KLBW 251600Z 15008G13KT 20/20 A3002 RMK A01 T02040195  RH  100%=      5-min Rain = 0
KLBW 251605Z 15009KT 20/20 A3003 RMK A01 T02040195  RH  100%=      5-min Rain = 0
KLBW 251610Z 15010KT 20/20 A3003 RMK A01 T02040195  RH  100%=      5-min Rain = 0
KLBW 251615Z 15010KT 21/20 A3002 RMK A01 T02050196  RH  100%=      5-min Rain = 0
KLBW 251620Z 15008KT 21/20 A3002 RMK A01 T02060197  RH  100%=      5-min Rain = 0
KLBW 251625Z 15010KT 21/20 A3002 RMK A01 T02070197  RH  100%=      5-min Rain = 0
KLBW 251630Z 15009KT 21/20 A3002 RMK A01 T02070198  RH  100%=      5-min Rain = 0
KLBW 251635Z 15011G17KT 21/20 A3002 RMK A01 T02080199  RH  100%=      5-min Rain = 0
KLBW 251640Z 15012KT 21/20 A3002 RMK A01 T02080199  RH  100%=      5-min Rain = 0
KLBW 251645Z 15009KT 21/20 A3002 RMK A01 T02100201  RH  100%=      5-min Rain = 0
KLBW 251650Z 14009KT 21/20 A3003 RMK A01 T02090200  RH  100%=      5-min Rain = 0
KLBW 251655Z 15008KT 21/20 A3003 RMK A01 T02090200  RH  100%=      5-min Rain = 0
KLBW 251700Z 15011KT 21/20 A3003 RMK A01 T02080199  RH  100%=      5-min Rain = 0
KLBW 251705Z 15009G16KT 21/20 A3003 RMK A01 T02070198  RH  100%=      5-min Rain = 0
KLBW 251710Z 15008KT 21/20 A3003 RMK A01 T02080199  RH  100%=      5-min Rain = 0
KLBW 251715Z 15010G16KT 21/20 A3002 RMK A01 T02080199  RH  100%=      5-min Rain = 0
KLBW 251720Z 15010KT 21/20 A3002 RMK A01 T02080199  RH  100%=      5-min Rain = 0
KLBW 251725Z 15009KT 21/20 A3002 RMK A01 T02090199  RH  100%=      5-min Rain = 0
KLBW 251730Z 15011KT 21/20 A3002 RMK A01 T02090199  RH  100%=      5-min Rain = 0
KLBW 251735Z 15011KT 21/20 A3002 RMK A01 T02080199  RH  100%=      5-min Rain = 0
KLBW 251740Z 14010KT 21/20 A3002 RMK A01 T02080199  RH  100%=      5-min Rain = 0
KLBW 251745Z 15010G16KT 21/20 A3002 RMK A01 T02080198  RH  100%=      5-min Rain = 0
KLBW 251750Z 14009G15KT 21/20 A3002 RMK A01 T02080199  RH  100%=      5-min Rain = 0
KLBW 251755Z 14010G16KT 21/20 A3002 RMK A01 T02080199  RH  100%=      5-min Rain = 0
KLBW 251800Z 14008G13KT 21/20 A3002 RMK A01 T02080199  RH  100%=      5-min Rain = 0
KLBW 251805Z 13009G14KT 21/20 A3002 RMK A01 T02070198  RH  100%=      5-min Rain = 0
KLBW 251810Z 13010G15KT 21/20 A3001 RMK A01 T02070198  RH  100%=      5-min Rain = 0
KLBW 251815Z 13008G13KT 21/20 A30 RMK A01 T02070198  RH  100%=      5-min Rain = 0
KLBW 251820Z 13008G13KT 21/20 A30 RMK A01 T02080199  RH  100%=      5-min Rain = 0
KLBW 251825Z 14008G13KT 21/20 A30 RMK A01 T02080199  RH  100%=      5-min Rain = 0
KLBW 251830Z 13010G15KT 21/20 A2999 RMK A01 T02080198  RH  100%=      5-min Rain = 0
KLBW 251835Z 13011KT 21/20 A2999 RMK A01 T02080199  RH  100%=      5-min Rain = 0
KLBW 251840Z 13010G15KT 21/20 A2999 RMK A01 T02090200  RH  100%=      5-min Rain = 0
KLBW 251845Z 13011KT 21/20 A2999 RMK A01 T02110202  RH  100%=      5-min Rain = 0
KLBW 251850Z 13012G17KT 21/20 A2999 RMK A01 T02130203  RH  100%=      5-min Rain = 0
KLBW 251855Z 14012G17KT 22/21 A2998 RMK A01 T02150205  RH  100%=      5-min Rain = 0
KLBW 251900Z 14014G19KT 22/21 A2998 RMK A01 T02150206  RH  100%=      5-min Rain = 0
KLBW 251905Z 13012G19KT 21/21 A2997 RMK A01 T02140205  RH  100%=      5-min Rain = 0
KLBW 251910Z 14012G20KT 22/21 A2997 RMK A01 T02150206  RH  100%=      5-min Rain = 0
KLBW 251915Z 14011G16KT 22/21 A2997 RMK A01 T02170208  RH  100%=      5-min Rain = 0
KLBW 251920Z 14012KT 22/21 A2997 RMK A01 T02200211  RH  100%=      5-min Rain = 0
KLBW 251925Z 14013G18KT 23/22 A2996 RMK A01 T02270217  RH  100%=      5-min Rain = 0
KLBW 251930Z 14011G20KT 23/22 A2996 RMK A01 T02320222  RH  100%=      5-min Rain = 0
KLBW 251935Z 14013G20KT 24/22 A2996 RMK A01 T02360221  RH  097%=      5-min Rain = 0
KLBW 251940Z 14012G21KT 24/22 A2996 RMK A01 T02440222  RH  094%=      5-min Rain = 0
KLBW 251945Z 15011G16KT 24/22 A2996 RMK A01 T02420215  RH  090%=      5-min Rain = 0
KLBW 251950Z 14012G18KT 24/21 A2996 RMK A01 T02410212  RH  089%=      5-min Rain = 0
KLBW 251955Z 13011G17KT 24/21 A2996 RMK A01 T02360212  RH  092%=      5-min Rain = 0
KLBW 252000Z 13010G15KT 23/21 A2996 RMK A01 T02340211  RH  092%=      5-min Rain = 0
KLBW 252005Z 12009G14KT 23/21 A2996 RMK A01 T02320210  RH  093%=      5-min Rain = 0
KLBW 252010Z 13009G15KT 23/21 A2995 RMK A01 T02310212  RH  094%=      5-min Rain = 0
KLBW 252015Z 13011G16KT 24/21 A2996 RMK A01 T02380213  RH  092%=      5-min Rain = 0
KLBW 252020Z 13009G15KT 24/21 A2995 RMK A01 T02390213  RH  090%=      5-min Rain = 0
KLBW 252025Z 13011G17KT 24/21 A2995 RMK A01 T02410212  RH  089%=      5-min Rain = 0
KLBW 252030Z 14011KT 24/21 A2995 RMK A01 T02420210  RH  088%=      5-min Rain = 0
KLBW 252035Z 14012G17KT 25/21 A2994 RMK A01 T02480212  RH  086%=      5-min Rain = 0
KLBW 252040Z 14013G19KT 25/21 A2994 RMK A01 T02500209  RH  083%=      5-min Rain = 0
KLBW 252045Z 13013G19KT 24/21 A2995 RMK A01 T02430207  RH  085%=      5-min Rain = 0
KLBW 252050Z 14013G20KT 25/21 A2994 RMK A01 T02450210  RH  086%=      5-min Rain = 0
KLBW 252055Z 14013G19KT 25/21 A2994 RMK A01 T02530210  RH  082%=      5-min Rain = 0.01
KLBW 252100Z 15011G16KT 26/21 A2994 RMK A01 T02580214  RH  081%=      5-min Rain = 0
KLBW 252105Z 15013G19KT 26/21 A2993 RMK A01 T02620210  RH  077%=      5-min Rain = 0
KLBW 252110Z 13013G18KT 26/21 A2993 RMK A01 T02610206  RH  076%=      5-min Rain = 0
KLBW 252115Z 15013G29KT 26/21 A2993 RMK A01 T02600205  RH  076%=      5-min Rain = 0
KLBW 252120Z 15016G28KT 26/20 A2992 RMK A01 T02630200  RH  073%=      5-min Rain = 0
KLBW 252125Z 16017G23KT 27/20 A2991 RMK A01 T02670199  RH  070%=      5-min Rain = 0
KLBW 252130Z 15016G26KT 26/20 A2991 RMK A01 T02640198  RH  071%=      5-min Rain = 0
KLBW 252135Z 15016G24KT 26/20 A299 RMK A01 T02600197  RH  072%=      5-min Rain = 0
KLBW 252140Z 15021G29KT 27/19 A299 RMK A01 T02660194  RH  068%=      5-min Rain = 0
KLBW 252145Z 16016G23KT 27/19 A299 RMK A01 T02660194  RH  068%=      5-min Rain = 0
KLBW 252150Z 15019G27KT 27/19 A2991 RMK A01 T02680192  RH  066%=      5-min Rain = 0
KLBW 252155Z 15017G26KT 27/19 A2991 RMK A01 T02650191  RH  067%=      5-min Rain = 0
KLBW 252200Z 15019G27KT 27/19 A2989 RMK A01 T02650188  RH  066%=      5-min Rain = 0
KLBW 252205Z 16018G28KT 26/19 A2989 RMK A01 T02640189  RH  067%=      5-min Rain = 0
KLBW 252210Z 16017G29KT 26/19 A2989 RMK A01 T02610188  RH  068%=      5-min Rain = 0
KLBW 252215Z 16015G21KT 26/19 A299 RMK A01 T02590188  RH  069%=      5-min Rain = 0
KLBW 252220Z 16014G23KT 26/19 A299 RMK A01 T02570188  RH  070%=      5-min Rain = 0
KLBW 252225Z 16016G24KT 26/19 A299 RMK A01 T02560186  RH  069%=      5-min Rain = 0
KLBW 252230Z 15013G21KT 26/19 A299 RMK A01 T02550186  RH  069%=      5-min Rain = 0
KLBW 252235Z 16015G26KT 25/19 A299 RMK A01 T02520186  RH  071%=      5-min Rain = 0
KLBW 252240Z 15016G25KT 25/19 A2987 RMK A01 T02520185  RH  070%=      5-min Rain = 0
KLBW 252245Z 14014G20KT 25/18 A2985 RMK A01 T02510184  RH  070%=      5-min Rain = 0
KLBW 252250Z 15015G22KT 25/19 A2987 RMK A01 T02490186  RH  072%=      5-min Rain = 0
KLBW 252255Z 16018G31KT 25/19 A2988 RMK A01 T02490186  RH  072%=      5-min Rain = 0
KLBW 252300Z 17018G24KT 25/19 A2989 RMK A01 T02490186  RH  072%=      5-min Rain = 0
KLBW 252305Z 17016G22KT 25/19 A2991 RMK A01 T02500186  RH  072%=      5-min Rain = 0
KLBW 252310Z 17017G25KT 25/19 A2991 RMK A01 T02500186  RH  072%=      5-min Rain = 0
KLBW 252315Z 16015G22KT 25/19 A2992 RMK A01 T02510187  RH  072%=      5-min Rain = 0
KLBW 252320Z 16016G23KT 26/19 A2993 RMK A01 T02570188  RH  069%=      5-min Rain = 0
KLBW 252325Z 17013G18KT 26/19 A2993 RMK A01 T02590188  RH  069%=      5-min Rain = 0
KLBW 252330Z 18017G23KT 27/19 A2993 RMK A01 T02670187  RH  065%=      5-min Rain = 0
KLBW 252335Z 16016G23KT 27/19 A2993 RMK A01 T02680188  RH  065%=      5-min Rain = 0
KLBW 252340Z 17016G24KT 27/19 A2993 RMK A01 T02650186  RH  066%=      5-min Rain = 0
KLBW 252345Z 17011G17KT 26/19 A2993 RMK A01 T02630189  RH  067%=      5-min Rain = 0
KLBW 252350Z 17014G20KT 27/19 A2993 RMK A01 T02680188  RH  065%=      5-min Rain = 0
KLBW 252355Z 16012G21KT 27/19 A2993 RMK A01 T02680187  RH  065%=      5-min Rain = 0
KLBW 260000Z 16013G19KT 26/19 A2992 RMK A01 T02640186  RH  066%=      5-min Rain = 0
KLBW 260005Z 17013G21KT 27/19 A2993 RMK A01 T02660187  RH  065%=      5-min Rain = 0
KLBW 260010Z 16014G22KT 27/19 A2993 RMK A01 T02670186  RH  065%=      5-min Rain = 0
KLBW 260015Z 15014G21KT 26/18 A2993 RMK A01 T02630183  RH  065%=      5-min Rain = 0
KLBW 260020Z 16014G23KT 26/18 A2993 RMK A01 T02620182  RH  065%=      5-min Rain = 0
KLBW 260025Z 15013G19KT 26/18 A2993 RMK A01 T02600181  RH  065%=      5-min Rain = 0
KLBW 260030Z 15015G20KT 26/18 A2992 RMK A01 T02610180  RH  065%=      5-min Rain = 0
KLBW 260035Z 16016G24KT 26/18 A2992 RMK A01 T02590180  RH  065%=      5-min Rain = 0
KLBW 260040Z 16015G22KT 26/18 A2992 RMK A01 T02580180  RH  066%=      5-min Rain = 0
KLBW 260045Z 15012G19KT 26/18 A2993 RMK A01 T02570181  RH  066%=      5-min Rain = 0
KLBW 260050Z 16013G23KT 26/18 A2993 RMK A01 T02570181  RH  066%=      5-min Rain = 0
KLBW 260055Z 16012G18KT 26/18 A2993 RMK A01 T02570181  RH  066%=      5-min Rain = 0
KLBW 260100Z 16012G19KT 26/18 A2993 RMK A01 T02550181  RH  067%=      5-min Rain = 0
KLBW 260105Z 15010G17KT 25/18 A2993 RMK A01 T02540182  RH  068%=      5-min Rain = 0
KLBW 260110Z 15011G16KT 25/18 A2994 RMK A01 T02530182  RH  068%=      5-min Rain = 0
KLBW 260115Z 15012KT 25/18 A2994 RMK A01 T02530180  RH  067%=      5-min Rain = 0
KLBW 260120Z 15009G14KT 25/18 A2994 RMK A01 T02510181  RH  069%=      5-min Rain = 0
KLBW 260125Z 15012G18KT 25/18 A2994 RMK A01 T02490180  RH  069%=      5-min Rain = 0
KLBW 260130Z 15013G20KT 25/18 A2994 RMK A01 T02500179  RH  068%=      5-min Rain = 0
KLBW 260135Z 15012G18KT 25/18 A2994 RMK A01 T02480179  RH  069%=      5-min Rain = 0
KLBW 260140Z 14011G16KT 25/18 A2994 RMK A01 T02470179  RH  070%=      5-min Rain = 0
KLBW 260145Z 14010G16KT 24/18 A2994 RMK A01 T02440180  RH  071%=      5-min Rain = 0
KLBW 260150Z 14011KT 24/18 A2994 RMK A01 T02430180  RH  072%=      5-min Rain = 0
KLBW 260155Z 14011G18KT 24/18 A2994 RMK A01 T02420181  RH  073%=      5-min Rain = 0
KLBW 260200Z 14012G18KT 24/18 A2994 RMK A01 T02410180  RH  072%=      5-min Rain = 0
KLBW 260205Z 15013G18KT 24/18 A2994 RMK A01 T02410180  RH  073%=      5-min Rain = 0
KLBW 260210Z 15013G19KT 24/18 A2994 RMK A01 T02410180  RH  073%=      5-min Rain = 0
KLBW 260215Z 15013G20KT 24/18 A2994 RMK A01 T02400181  RH  073%=      5-min Rain = 0
KLBW 260220Z 15013G18KT 24/18 A2995 RMK A01 T02390181  RH  074%=      5-min Rain = 0
KLBW 260225Z 15013G20KT 24/18 A2995 RMK A01 T02390181  RH  074%=      5-min Rain = 0
KLBW 260230Z 15013G19KT 24/18 A2995 RMK A01 T02380181  RH  074%=      5-min Rain = 0
KLBW 260235Z 15013G19KT 24/18 A2995 RMK A01 T02370181  RH  074%=      5-min Rain = 0
KLBW 260240Z 14013KT 24/18 A2995 RMK A01 T02370181  RH  075%=      5-min Rain = 0
KLBW 260245Z 15012G18KT 24/18 A2995 RMK A01 T02360181  RH  075%=      5-min Rain = 0
KLBW 260250Z 15011G18KT 24/18 A2995 RMK A01 T02350181  RH  076%=      5-min Rain = 0
KLBW 260255Z 15012G17KT 23/18 A2995 RMK A01 T02340181  RH  076%=      5-min Rain = 0
KLBW 260300Z 15012G20KT 23/18 A2995 RMK A01 T02340181  RH  076%=      5-min Rain = 0
KLBW 260305Z 15012G17KT 23/18 A2995 RMK A01 T02330181  RH  076%=      5-min Rain = 0
KLBW 260310Z 15013G19KT 23/18 A2995 RMK A01 T02330180  RH  076%=      5-min Rain = 0
KLBW 260315Z 15012G17KT 23/18 A2994 RMK A01 T02330180  RH  076%=      5-min Rain = 0
KLBW 260320Z 15011G16KT 23/18 A2994 RMK A01 T02310181  RH  077%=      5-min Rain = 0
KLBW 260325Z 15011G16KT 23/18 A2995 RMK A01 T02300181  RH  078%=      5-min Rain = 0
KLBW 260330Z 15010KT 23/18 A2995 RMK A01 T02280181  RH  079%=      5-min Rain = 0
KLBW 260335Z 15010KT 23/18 A2995 RMK A01 T02270182  RH  080%=      5-min Rain = 0
KLBW 260340Z 15011KT 23/18 A2995 RMK A01 T02270182  RH  080%=      5-min Rain = 0
KLBW 260345Z 15010G15KT 23/18 A2995 RMK A01 T02260183  RH  081%=      5-min Rain = 0
KLBW 260350Z 15010KT 22/18 A2995 RMK A01 T02240184  RH  082%=      5-min Rain = 0
KLBW 260355Z 15009G16KT 22/18 A2995 RMK A01 T02220184  RH  083%=      5-min Rain = 0
KLBW 260400Z 15010KT 22/18 A2995 RMK A01 T02240184  RH  082%=      5-min Rain = 0
KLBW 260405Z 15010KT 22/18 A2996 RMK A01 T02240183  RH  082%=      5-min Rain = 0
KLBW 260410Z 16010KT 22/18 A2996 RMK A01 T02230183  RH  083%=      5-min Rain = 0
KLBW 260415Z 16010KT 22/18 A2996 RMK A01 T02220183  RH  083%=      5-min Rain = 0
KLBW 260420Z 16009G15KT 22/18 A2996 RMK A01 T02200183  RH  084%=      5-min Rain = 0
KLBW 260425Z 15010G15KT 22/18 A2996 RMK A01 T02210182  RH  083%=      5-min Rain = 0
KLBW 260430Z 16010G15KT 22/18 A2996 RMK A01 T02200182  RH  083%=      5-min Rain = 0
KLBW 260435Z 16011G16KT 22/18 A2996 RMK A01 T02200181  RH  083%=      5-min Rain = 0
KLBW 260440Z 16010G15KT 22/18 A2996 RMK A01 T02210180  RH  082%=      5-min Rain = 0
KLBW 260445Z 16011KT 22/18 A2996 RMK A01 T02200179  RH  082%=      5-min Rain = 0
KLBW 260450Z 16009KT 22/18 A2996 RMK A01 T02190179  RH  082%=      5-min Rain = 0
KLBW 260455Z 17009G14KT 22/18 A2996 RMK A01 T02180178  RH  082%=      5-min Rain = 0

Page generated in 0.0093 seconds.